Latest Coastal Weather Observations for Albion Park

IDN60701

Issued at 11:32 am EST Saturday 1 October 2016 (issued every 10 minutes, with the page automatically refreshed every 10 minutes)

About coastal observations | Map of coastal stations | Coastal observations for NSW | Marine services | Other Formats
Station Details ID: 068241 Name: WOLLONGONG AIRPORT Lat: -34.56 Lon: 150.79 Height: 8.0 m
Data from the previous 72 hours. | See also: Recent months at Albion Park
Date/Time
EST
Temp
°C
Wind Pressure Rain since
9am
mm
Weather Cloud Vis
km
Sea
Height
m
Swell
Dir  Spd
kts
Gust
kts
hPa Trend Height
m
Period
s
Dir
01/11:30am 20.2 W 22 33 1003.4 - 0.0 - - 10 - - - -
01/11:00am 20.2 W 22 35 1003.4 - 0.0 - - 10 - - - -
01/10:38am 19.7 W 25 35 1003.5 - 0.0 - - 10 - - - -
01/10:30am 19.8 W 24 37 1003.4 - 0.0 - - 10 - - - -
01/10:29am 20.1 W 25 37 1003.5 - 0.0 - - 10 - - - -
01/10:00am 19.1 WNW 31 42 1003.0 - 0.0 - - 10 - - - -
01/09:42am 18.8 W 30 41 1003.0 - 0.0 - - 10 - - - -
01/09:30am 19.2 WNW 30 38 1003.1 - 0.0 - - 10 - - - -
01/09:03am 19.0 WNW 24 35 1003.7 - 0.0 - - 10 - - - -
01/09:00am 19.0 WNW 23 31 1003.8 - 0.0 - - 10 - - - -
01/08:30am 18.5 W 23 33 1003.9 - 0.0 - - 10 - - - -
01/08:07am 18.0 W 21 31 1003.4 - 0.0 - - 10 - - - -
01/08:00am 17.5 W 18 25 1003.4 - 0.0 - - 10 - - - -
01/07:54am 17.2 W 15 25 1003.6 - 0.0 - - 10 - - - -
01/07:30am 15.5 NW 7 16 1003.8 - 0.0 - - 10 - - - -
01/07:00am 15.5 WNW 9 17 1003.8 - 0.0 - - 10 - - - -
01/06:30am 15.7 WNW 17 23 1003.1 - 0.0 - - 10 - - - -
01/06:23am 15.5 WNW 15 25 1002.9 - 0.0 - - 10 - - - -
01/06:00am 14.0 W 9 14 1002.7 - 0.0 - - 10 - - - -
01/05:30am 13.1 WNW 8 11 1002.2 - 0.0 - - 10 - - - -
01/05:00am 12.9 NW 7 14 1001.8 - 0.0 - Partly cloudy 10 - - - -
01/04:30am 12.2 NNE 7 10 1001.3 - 0.0 - Partly cloudy 10 - - - -
01/04:00am 12.3 NE 8 9 1000.8 - 0.0 - Partly cloudy 10 - - - -
01/03:30am 11.9 NE 9 12 1000.3 - 0.0 - - 10 - - - -
01/03:00am 12.9 NNE 8 12 1000.1 - 0.0 - Mostly clear 10 - - - -
01/02:30am 12.3 ESE 5 9 1000.1 - 0.0 - - 10 - - - -
01/02:00am 13.7 NW 4 10 1000.2 - 0.0 - Partly cloudy 10 - - - -
01/01:30am 13.2 ENE 5 11 1000.4 - 0.0 - Partly cloudy 10 - - - -
01/01:00am 13.5 N 7 12 1000.6 - 0.0 - - 10 - - - -
01/12:30am 13.1 W 6 9 1000.0 - 0.0 - - 10 - - - -
01/12:00am 12.7 W 15 21 1000.1 - 0.0 - - 10 - - - -
 
Date/Time
EST
Temp
°C
Wind Pressure Rain since
9am
mm
Weather Cloud Vis
km
Sea
Height
m
Swell
Dir  Spd
kts
Gust
kts
hPa Trend Height
m
Period
s
Dir
30/11:30pm 12.9 WNW 23 34 1000.1 - 0.0 - Partly cloudy 10 - - - -
30/11:21pm 13.2 WNW 23 33 999.6 - 0.0 - Partly cloudy 10 - - - -
30/11:13pm 13.7 WNW 31 43 998.9 - 0.0 - Partly cloudy 10 - - - -
30/11:00pm 14.0 WNW 37 47 997.8 - 0.0 - Partly cloudy 10 - - - -
30/10:50pm 14.3 WNW 27 48 998.5 - 0.0 - Partly cloudy 10 - - - -
30/10:36pm 13.6 W 25 46 999.6 - 0.0 - - 10 - - - -
30/10:31pm 13.5 W 26 39 999.9 - 0.0 - - 10 - - - -
30/10:30pm 13.5 W 26 39 999.9 - 0.0 - - 10 - - - -
30/10:29pm 13.6 W 25 39 999.8 - 0.0 - - 10 - - - -
30/10:24pm 13.7 W 18 36 999.8 - 0.0 - - 10 - - - -
30/10:21pm 13.5 W 16 26 1000.0 - 0.0 - - 10 - - - -
30/10:00pm 13.9 W 19 28 1000.0 - 0.0 - - 10 - - - -
30/09:36pm 14.4 W 19 29 999.5 - 0.0 - - 10 - - - -
30/09:30pm 14.4 W 16 25 999.5 - 0.0 - - 10 - - - -
30/09:03pm 14.3 NW 12 26 999.5 - 0.0 - - 10 - - - -
30/09:02pm 14.3 NW 13 26 999.3 - 0.0 - - 10 - - - -
30/09:00pm 14.0 NW 11 18 999.5 - 0.0 - Cloudy 10 - - - -
30/08:30pm 13.7 W 8 20 999.8 - 0.0 - - 10 - - - -
30/08:02pm 13.8 WNW 15 29 999.6 - 0.0 - - 10 - - - -
30/08:00pm 13.9 WNW 14 29 999.6 - 0.0 - - 10 - - - -
30/07:41pm 14.0 W 15 28 999.5 - 0.0 - - 10 - - - -
30/07:30pm 13.9 WNW 15 22 999.4 - 0.0 - - 10 - - - -
30/07:05pm 14.2 WNW 16 26 999.4 - 0.0 - - 10 - - - -
30/07:00pm 14.2 WNW 15 21 999.4 - 0.0 - - 10 - - - -
30/06:30pm 14.8 WNW 11 18 999.4 - 0.0 - Partly cloudy 10 - - - -
30/06:00pm 15.3 WNW 9 15 999.0 - 0.0 - Partly cloudy 10 - - - -
30/05:30pm 16.0 WNW 11 16 998.5 - 0.0 - Partly cloudy 10 - - - -
30/05:07pm 16.8 WNW 15 25 998.2 - 0.0 - Partly cloudy 10 - - - -
30/05:00pm 17.5 WNW 11 18 998.0 - 0.0 - Cloudy 10 - - - -
30/04:30pm 17.7 WNW 13 18 997.3 - 0.0 - Partly cloudy 10 - - - -
30/04:00pm 18.4 WNW 16 23 996.7 - 0.0 - Partly cloudy 10 - - - -
30/03:32pm 18.1 WNW 15 26 996.5 - 0.0 - Partly cloudy 10 - - - -
30/03:30pm 18.8 NW 14 22 996.5 - 0.0 - Partly cloudy 10 - - - -
30/03:00pm 17.4 NW 13 19 996.3 - 0.0 - Cloudy 10 - - - -
30/02:30pm 18.2 NW 15 21 996.4 - 0.0 - Partly cloudy 10 - - - -
30/02:19pm 17.8 NW 17 23 996.4 - 0.0 - Partly cloudy 10 - - - -
30/02:00pm 18.7 NNW 14 22 996.3 - 0.0 - Partly cloudy 10 - - - -
30/01:43pm 18.5 NW 17 28 996.1 - 0.0 - Partly cloudy 10 - - - -
30/01:30pm 18.6 NW 17 23 996.4 - 0.0 - Partly cloudy 10 - - - -
30/01:20pm 18.3 NW 15 27 996.5 - 0.0 - Partly cloudy 10 - - - -
30/01:00pm 17.7 NW 15 21 996.7 - 0.0 - Partly cloudy 10 - - - -
30/12:30pm 16.9 NW 15 23 996.9 - 0.0 - Partly cloudy 10 - - - -
30/12:10pm 16.7 NW 15 26 997.1 - 0.0 - Partly cloudy 10 - - - -
30/12:00pm 16.8 NW 15 20 997.3 - 0.0 - Cloudy 10 - - - -
30/11:30am 16.2 NNW 13 19 997.6 - 0.0 - Partly cloudy 10 - - - -
30/11:00am 15.9 NNW 16 24 997.4 - 0.0 - Partly cloudy 10 - - - -
30/10:30am 16.0 NNW 14 22 997.5 - 0.0 - Partly cloudy 10 - - - -
30/10:00am 16.0 NNW 13 19 997.4 - 0.0 - Partly cloudy 10 - - - -
30/09:30am 15.8 NNW 10 15 997.3 - 0.0 - Partly cloudy 10 - - - -
30/09:00am 16.1 N 9 13 997.6 - 1.4 - Cloudy 10 - - - -
30/08:30am 14.8 N 7 9 997.8 - 1.4 - Cloudy 10 - - - -
30/08:00am 12.9 NNE 7 8 997.8 - 1.4 - Partly cloudy 10 - - - -
30/07:30am 9.4 NW 4 5 997.8 - 1.4 - Partly cloudy 10 - - - -
30/07:00am 7.3 W 4 5 997.6 - 1.4 - Partly cloudy 10 - - - -
30/06:30am 6.9 W 3 5 997.5 - 1.4 - Partly cloudy 10 - - - -
30/06:00am 6.8 WNW 5 8 997.2 - 1.4 - - 10 - - - -
30/05:30am 6.9 WSW 1 5 996.8 - 1.4 - - 10 - - - -
30/05:00am 8.8 NW 4 6 996.7 - 1.4 - - 10 - - - -
30/04:30am 11.3 N 6 8 996.5 - 1.4 - - 10 - - - -
30/04:00am 12.9 NNE 6 10 996.2 - 1.4 - - 10 - - - -
30/03:30am 12.8 N 6 9 996.7 - 1.4 - - 10 - - - -
30/03:00am 13.4 N 7 11 996.8 - 1.4 - - 10 - - - -
30/02:30am 13.7 N 7 10 997.0 - 1.4 - - 10 - - - -
30/02:00am 13.9 NNE 6 7 997.2 - 1.4 - - 10 - - - -
30/01:30am 14.2 NNE 7 12 997.2 - 1.4 - - 10 - - - -
30/01:00am 14.5 N 7 13 997.4 - 1.4 - - 10 - - - -
30/12:30am 14.0 NW 11 16 997.5 - 1.4 - - 10 - - - -
30/12:17am 14.4 NW 14 22 997.4 - 1.4 - - 10 - - - -
30/12:00am 14.3 NW 6 12 997.4 - 1.4 - - 10 - - - -
 
Date/Time
EST
Temp
°C
Wind Pressure Rain since
9am
mm
Weather Cloud Vis
km
Sea
Height
m
Swell
Dir  Spd
kts
Gust
kts
hPa Trend Height
m
Period
s
Dir
29/11:30pm 14.4 W 10 22 997.4 - 1.4 - - 10 - - - -
29/11:00pm 14.1 SSW 4 9 997.4 - 1.4 - - 10 - - - -
29/10:30pm 11.8 W 5 12 997.2 - 1.4 - - 10 - - - -
29/10:00pm 13.8 W 6 11 997.1 - 1.4 - - 10 - - - -
29/09:30pm 10.6 ESE 3 6 997.1 - 1.4 - - 10 - - - -
29/09:00pm 10.1 WNW 3 5 997.0 - 1.4 - - 10 - - - -
29/08:30pm 12.0 SSW 3 4 996.8 - 1.4 - Partly cloudy 10 - - - -
29/08:00pm 12.8 S 7 11 996.5 - 1.4 - Partly cloudy 10 - - - -
29/07:30pm 14.5 W 5 10 996.4 - 1.4 - - 10 - - - -
29/07:00pm 13.7 NNW 4 7 995.8 - 1.4 - - 10 - - - -
29/06:30pm 14.2 ESE 5 7 995.2 - 1.4 - - 10 - - - -
29/06:00pm 14.9 W 3 6 995.0 - 1.4 - - 10 - - - -
29/05:30pm 17.1 W 14 19 994.8 - 1.4 - - 10 - - - -
29/05:00pm 18.0 WNW 13 21 994.3 - 1.4 - Partly cloudy 10 - - - -
29/04:32pm 18.6 WNW 7 25 993.9 - 1.4 - Partly cloudy 10 - - - -
29/04:30pm 18.7 NNW 5 11 994.1 - 1.4 - Partly cloudy 10 - - - -
29/04:00pm 18.9 NNE 5 7 993.4 - 1.2 - Partly cloudy 10 - - - -
29/03:30pm 19.5 NNE 7 10 993.1 - 1.2 - Partly cloudy 10 - - - -
29/03:00pm 19.2 N 8 10 993.5 - 1.2 - Mostly clear 10 - - - -
29/02:30pm 18.7 N 8 13 993.7 - 1.2 - Partly cloudy 10 - - - -
29/02:00pm 18.0 WNW 7 11 994.1 - 1.2 - Partly cloudy 10 - - - -
29/01:30pm 16.8 NW 14 20 995.6 - 1.2 - Cloudy 10 - - - -
29/01:00pm 18.5 NNW 8 15 995.0 - 1.0 - Partly cloudy 10 - - - -
29/12:30pm 17.3 N 6 8 995.6 - 1.0 - Partly cloudy 10 - - - -
29/12:00pm 16.5 NNE 7 11 995.6 - 1.0 - Partly cloudy 10 - - - -
29/11:56am 16.4 NNE 6 10 995.6 - 1.0 - Partly cloudy 10 - - - -
29/11:30am 15.3 N 5 7 997.7 - 1.0 - Partly cloudy 10 - - - -
29/11:00am 14.6 NW 5 7 998.2 - 1.0 - Partly cloudy 10 - - - -
29/10:30am 14.0 NNW 1 4 998.6 - 0.8 - Cloudy 10 - - - -
29/10:00am 13.8 NNW 7 10 999.5 - 0.8 - Cloudy 10 - - - -
29/09:30am 13.6 NNW 8 10 1000.0 - 0.8 - Cloudy 8 - - - -
29/09:00am 13.5 NW 5 6 1000.7 - 1.2 Rain Cloudy 10 - - - -
29/08:30am 13.9 N 4 5 1000.6 - 0.6 - Partly cloudy 10 - - - -
29/08:00am 14.0 NNW 3 5 1001.0 - 0.4 - Partly cloudy 10 - - - -
29/07:30am 13.9 N 2 4 1001.3 - 0.4 - Cloudy 10 - - - -
29/07:00am 13.5 CALM 0 0 1001.7 - 0.0 - Cloudy 10 - - - -
29/06:30am 13.8 NW 1 5 1001.7 - 0.0 - Partly cloudy 10 - - - -
29/06:00am 14.4 NNW 5 7 1002.6 - 0.0 - Cloudy 10 - - - -
29/05:30am 14.1 W 4 5 1002.7 - 0.0 - Partly cloudy 10 - - - -
29/05:00am 14.5 W 6 9 1002.9 - 0.0 - Partly cloudy 10 - - - -
29/04:30am 14.3 NW 5 7 1003.5 - 0.0 - Partly cloudy 10 - - - -
29/04:00am 14.3 NW 8 12 1003.7 - 0.0 - Partly cloudy 10 - - - -
29/03:30am 14.2 NW 8 10 1004.4 - 0.0 - - 10 - - - -
29/03:00am 14.3 NW 6 9 1005.1 - 0.0 - Cloudy 10 - - - -
29/02:30am 13.0 W 2 4 1005.5 - 0.0 - - 10 - - - -
29/02:00am 10.6 W 2 4 1006.3 - 0.0 - - 10 - - - -
29/01:30am 12.6 NW 4 7 1007.0 - 0.0 - Partly cloudy 10 - - - -
29/01:00am 12.5 NW 7 9 1007.7 - 0.0 - Partly cloudy 10 - - - -
29/12:30am 10.1 NW 5 6 1007.7 - 0.0 - - 10 - - - -
29/12:00am 9.6 CALM 0 0 1008.2 - 0.0 - Mostly cloudy 10 - - - -
 
Date/Time
EST
Temp
°C
Wind Pressure Rain since
9am
mm
Weather Cloud Vis
km
Sea
Height
m
Swell
Dir  Spd
kts
Gust
kts
hPa Trend Height
m
Period
s
Dir
28/11:30pm 9.0 CALM 0 0 1008.6 - 0.0 - - 10 - - - -
28/11:00pm 9.3 CALM 0 0 1009.1 - 0.0 - - 10 - - - -
28/10:30pm 8.7 CALM 0 0 1009.5 - 0.0 - - 10 - - - -
28/10:00pm 9.5 CALM 0 0 1009.7 - 0.0 - - 10 - - - -
28/09:30pm 9.7 W 1 3 1010.1 - 0.0 - - 10 - - - -
28/09:00pm 10.8 W 3 6 1010.4 - 0.0 - - 10 - - - -
28/08:30pm 11.0 W 4 5 1010.5 - 0.0 - - 10 - - - -
28/08:00pm 11.1 W 5 6 1010.4 - 0.0 - - 10 - - - -
28/07:30pm 11.9 WNW 5 6 1010.4 - 0.0 - - 10 - - - -
28/07:00pm 12.9 W 4 6 1010.3 - 0.0 - - 10 - - - -
28/06:30pm 16.6 NE 6 9 1010.1 - 0.0 - - 10 - - - -
28/06:00pm 16.6 NE 7 10 1010.2 - 0.0 - - 10 - - - -
28/05:30pm 16.9 ENE 8 10 1010.5 - 0.0 - - 10 - - - -
28/05:00pm 16.9 NE 8 11 1010.4 - 0.0 - - 10 - - - -
28/04:30pm 17.6 NE 8 11 1010.4 - 0.0 - - 10 - - - -
28/04:00pm 17.8 NE 9 12 1010.7 - 0.0 - - 10 - - - -
28/03:30pm 18.0 ENE 8 12 1010.9 - 0.0 - - 10 - - - -
28/03:00pm 18.4 NE 9 12 1011.2 - 0.0 - Mostly clear 10 - - - -
28/02:30pm 18.9 ENE 9 14 1011.6 - 0.0 - - 10 - - - -
28/02:00pm 18.1 E 9 13 1012.0 - 0.0 - - 10 - - - -
28/01:30pm 18.3 ENE 9 12 1012.5 - 0.0 - - 10 - - - -
28/01:00pm 18.8 E 7 11 1012.9 - 0.0 - Partly cloudy 10 - - - -
28/12:30pm 19.0 SE 7 11 1013.1 - 0.0 - Partly cloudy 10 - - - -
28/12:00pm 18.1 E 6 9 1013.3 - 0.0 - Mostly cloudy 10 - - - -

Other Formats:

Comma delimited format used in spreadsheet applications
http://www.bom.gov.au/fwo/IDN60701/IDN60701.95748.axf

JavaScript Object Notation format (JSON) in row-major order
http://www.bom.gov.au/fwo/IDN60701/IDN60701.95748.json